createdAt,value
2022-09-14T00:01:40.122Z,4.17
2022-09-14T00:04:16.221Z,4.13
2022-09-14T00:06:45.623Z,4.23
2022-09-14T00:09:23.249Z,4.60
2022-09-14T00:11:51.346Z,4.07
2022-09-14T00:14:19.841Z,4.70
2022-09-14T00:16:47.960Z,4.03
2022-09-14T00:19:26.942Z,4.67
2022-09-14T00:21:57.033Z,4.20
2022-09-14T00:24:26.780Z,4.70
2022-09-14T00:26:55.412Z,3.80
2022-09-14T00:29:23.835Z,4.23
2022-09-14T00:31:51.859Z,3.60
2022-09-14T00:34:20.188Z,4.50
2022-09-14T00:36:51.384Z,3.70
2022-09-14T00:39:28.019Z,3.90
2022-09-14T00:41:55.781Z,3.53
2022-09-14T00:44:23.109Z,3.90
2022-09-14T00:46:56.414Z,3.43
2022-09-14T00:49:35.434Z,3.77
2022-09-14T00:52:15.313Z,3.70
2022-09-14T00:54:53.623Z,3.73
2022-09-14T00:57:22.174Z,3.53
2022-09-14T00:59:52.364Z,3.40
2022-09-14T01:02:22.274Z,3.40
2022-09-14T01:04:50.802Z,3.50
2022-09-14T01:07:34.238Z,3.50
2022-09-14T01:10:26.442Z,3.77
2022-09-14T01:13:28.842Z,3.37
2022-09-14T01:16:14.483Z,3.23
2022-09-14T01:19:00.462Z,3.43
2022-09-14T01:21:38.086Z,3.17
2022-09-14T01:24:44.474Z,3.50
2022-09-14T01:27:34.422Z,3.23
2022-09-14T01:30:18.030Z,3.10
2022-09-14T01:33:09.491Z,3.60
2022-09-14T01:35:55.475Z,2.97
2022-09-14T01:38:48.862Z,3.23
2022-09-14T01:41:24.634Z,3.10
2022-09-14T01:44:06.246Z,3.17
2022-09-14T01:46:50.078Z,3.23
2022-09-14T01:49:32.151Z,3.27
2022-09-14T01:52:09.110Z,3.03
2022-09-14T01:54:57.171Z,3.03
2022-09-14T01:57:35.738Z,3.43
2022-09-14T02:00:10.175Z,3.00
2022-09-14T02:02:40.227Z,2.90
2022-09-14T02:05:28.235Z,2.87
2022-09-14T02:07:56.520Z,2.80
2022-09-14T02:10:24.548Z,2.80
2022-09-14T02:12:53.806Z,2.73
2022-09-14T02:15:22.337Z,2.80
2022-09-14T02:17:50.062Z,2.80
2022-09-14T02:20:57.008Z,2.80
2022-09-14T02:23:25.056Z,2.67
2022-09-14T02:25:52.879Z,2.70
2022-09-14T02:28:21.788Z,2.83
2022-09-14T02:31:20.190Z,2.80
2022-09-14T02:34:28.950Z,2.67
2022-09-14T02:37:10.163Z,2.60
2022-09-14T02:39:53.511Z,2.70
2022-09-14T02:43:30.020Z,2.70
2022-09-14T02:46:18.604Z,2.70
2022-09-14T02:49:01.687Z,2.70
2022-09-14T02:51:57.647Z,2.70
2022-09-14T02:54:53.213Z,2.70
2022-09-14T02:57:20.439Z,2.60
2022-09-14T02:59:47.836Z,2.67
2022-09-14T03:02:15.667Z,2.60
2022-09-14T03:04:43.122Z,2.87
2022-09-14T03:07:10.184Z,2.70
2022-09-14T03:09:37.656Z,2.70
2022-09-14T03:12:09.929Z,2.70
2022-09-14T03:14:37.011Z,2.77
2022-09-14T03:17:04.401Z,2.67
2022-09-14T03:19:31.865Z,2.73
2022-09-14T03:21:59.893Z,2.60
2022-09-14T03:24:27.313Z,2.70
2022-09-14T03:26:54.696Z,2.70
2022-09-14T03:29:22.260Z,2.70
2022-09-14T03:31:49.260Z,2.53
2022-09-14T03:34:16.745Z,2.73
2022-09-14T03:36:44.208Z,2.70
2022-09-14T03:39:12.218Z,2.80
2022-09-14T03:41:39.604Z,2.80
2022-09-14T03:44:07.589Z,2.73
2022-09-14T03:46:35.111Z,2.70
2022-09-14T03:49:02.578Z,2.70
2022-09-14T03:51:30.053Z,2.60
2022-09-14T03:53:58.125Z,2.60
2022-09-14T03:56:25.531Z,2.77
2022-09-14T03:58:53.137Z,3.20
2022-09-14T04:01:22.419Z,2.80
2022-09-14T04:03:50.538Z,2.70
2022-09-14T04:06:19.323Z,2.60
2022-09-14T04:08:47.528Z,3.07
2022-09-14T04:11:22.091Z,2.80
2022-09-14T04:13:50.259Z,2.87
2022-09-14T04:16:22.961Z,2.70
2022-09-14T04:18:50.518Z,2.83
2022-09-14T04:21:22.279Z,3.00
2022-09-14T04:26:43.888Z,3.10
2022-09-14T04:29:12.240Z,3.00
2022-09-14T04:31:39.382Z,2.97
2022-09-14T04:34:07.102Z,2.87
2022-09-14T04:36:34.709Z,2.93
2022-09-14T04:39:03.780Z,3.03
2022-09-14T04:41:32.004Z,3.17
2022-09-14T04:44:00.590Z,3.10
2022-09-14T04:46:32.533Z,3.03
2022-09-14T04:49:00.164Z,3.23
2022-09-14T04:51:30.284Z,3.10
2022-09-14T04:54:02.159Z,3.00
2022-09-14T04:56:34.027Z,3.17
2022-09-14T04:59:04.525Z,3.10
2022-09-14T05:01:36.471Z,3.17
2022-09-14T05:04:05.673Z,3.13
2022-09-14T05:06:35.882Z,2.97
2022-09-14T05:09:07.087Z,2.90
2022-09-14T05:11:37.449Z,3.10
2022-09-14T05:14:05.299Z,3.17
2022-09-14T05:16:36.821Z,3.23
2022-09-14T05:19:12.935Z,3.13
2022-09-14T05:21:40.423Z,3.07
2022-09-14T05:24:15.612Z,2.93
2022-09-14T05:26:44.791Z,3.10
2022-09-14T05:29:18.321Z,2.93
2022-09-14T05:31:46.725Z,3.03
2022-09-14T05:34:14.603Z,2.77
2022-09-14T05:36:41.939Z,2.87
2022-09-14T05:39:10.177Z,3.03
2022-09-14T05:41:38.124Z,2.90
2022-09-14T05:44:06.110Z,2.90
2022-09-14T05:46:34.416Z,2.90
2022-09-14T05:49:01.919Z,2.83
2022-09-14T05:51:29.420Z,2.97
2022-09-14T05:53:58.928Z,3.00
2022-09-14T05:56:31.632Z,2.90
2022-09-14T05:59:00.154Z,2.97
2022-09-14T06:01:31.602Z,2.97
2022-09-14T06:04:02.235Z,2.97
2022-09-14T06:06:31.386Z,2.90
2022-09-14T06:08:59.672Z,3.03
2022-09-14T06:11:31.237Z,2.93
2022-09-14T06:13:59.148Z,3.20
2022-09-14T06:16:29.004Z,2.93
2022-09-14T06:18:58.696Z,2.97
2022-09-14T06:21:31.348Z,3.03
2022-09-14T06:23:59.556Z,3.07
2022-09-14T06:26:27.199Z,3.00
2022-09-14T06:28:54.613Z,3.13
2022-09-14T06:31:25.351Z,3.10
2022-09-14T06:33:53.179Z,3.07
2022-09-14T06:36:23.786Z,3.20
2022-09-14T06:38:51.887Z,3.07
2022-09-14T06:41:26.309Z,3.10
2022-09-14T06:43:56.641Z,3.03
2022-09-14T06:46:27.904Z,3.07
2022-09-14T06:48:59.304Z,3.20
2022-09-14T06:51:30.896Z,3.03
2022-09-14T06:54:00.161Z,3.03
2022-09-14T06:56:31.402Z,3.10
2022-09-14T06:58:59.625Z,3.20
2022-09-14T07:01:27.706Z,2.90
2022-09-14T07:03:58.001Z,3.10
2022-09-14T07:06:32.433Z,3.20
2022-09-14T07:09:03.695Z,3.23
2022-09-14T07:11:31.562Z,3.40
2022-09-14T07:13:59.269Z,3.20
2022-09-14T07:16:28.479Z,3.03
2022-09-14T07:18:58.190Z,3.13
2022-09-14T07:21:26.382Z,3.00
2022-09-14T07:23:53.906Z,3.20
2022-09-14T07:26:27.406Z,3.13
2022-09-14T07:29:03.597Z,3.10
2022-09-14T07:31:36.690Z,3.30
2022-09-14T07:34:05.713Z,3.07
2022-09-14T07:36:35.964Z,3.17
2022-09-14T07:39:06.224Z,3.03
2022-09-14T07:41:35.518Z,3.00
2022-09-14T07:44:07.323Z,3.00
2022-09-14T07:46:42.097Z,2.87
2022-09-14T07:49:11.213Z,3.00
2022-09-14T07:51:39.091Z,2.93
2022-09-14T07:54:08.736Z,2.87
2022-09-14T07:56:35.704Z,2.97
2022-09-14T08:03:38.580Z,2.90
2022-09-14T08:06:15.664Z,2.83
2022-09-14T08:08:47.138Z,2.97
2022-09-14T08:11:35.047Z,3.10
2022-09-14T08:14:11.976Z,3.10
2022-09-14T08:16:40.437Z,2.87
2022-09-14T08:19:16.415Z,2.90
2022-09-14T08:21:47.307Z,2.90
2022-09-14T08:24:19.226Z,2.90
2022-09-14T08:26:48.376Z,2.90
2022-09-14T08:29:18.335Z,3.20
2022-09-14T08:31:47.051Z,3.03
2022-09-14T08:34:16.013Z,3.10
2022-09-14T08:36:45.711Z,3.17
2022-09-14T08:39:15.762Z,3.10
2022-09-14T08:41:59.331Z,2.97
2022-09-14T08:44:55.395Z,3.03
2022-09-14T08:47:36.579Z,2.87
2022-09-14T08:50:18.229Z,3.13
2022-09-14T08:52:53.221Z,2.90
2022-09-14T08:55:35.728Z,2.93
2022-09-14T08:58:20.443Z,3.17
2022-09-14T09:01:42.389Z,3.20
2022-09-14T09:04:37.651Z,3.17
2022-09-14T09:07:55.456Z,3.40
2022-09-14T09:10:26.240Z,3.27
2022-09-14T09:12:59.108Z,3.03
2022-09-14T09:15:43.936Z,2.87
2022-09-14T09:18:15.152Z,3.13
2022-09-14T09:20:59.685Z,3.20
2022-09-14T09:23:29.936Z,3.17
2022-09-14T09:26:35.899Z,3.40
2022-09-14T09:29:05.744Z,3.03
2022-09-14T09:31:55.508Z,3.30
2022-09-14T09:34:44.736Z,3.50
2022-09-14T09:37:26.769Z,3.73
2022-09-14T09:39:54.508Z,3.70
2022-09-14T09:42:28.158Z,3.73
2022-09-14T09:45:21.997Z,3.47
2022-09-14T09:47:49.009Z,3.53
2022-09-14T09:50:21.920Z,3.60
2022-09-14T09:52:56.685Z,3.67
2022-09-14T09:55:37.632Z,3.97
2022-09-14T09:58:37.278Z,3.50
2022-09-14T10:01:17.402Z,3.50
2022-09-14T10:04:00.224Z,3.50
2022-09-14T10:06:27.894Z,3.60
2022-09-14T10:08:57.415Z,3.70
2022-09-14T10:11:37.834Z,3.60
2022-09-14T10:14:20.589Z,3.40
2022-09-14T10:16:48.146Z,3.73
2022-09-14T10:19:25.881Z,3.77
2022-09-14T10:22:27.961Z,3.43
2022-09-14T10:25:02.913Z,3.33
2022-09-14T10:27:41.369Z,3.30
2022-09-14T10:30:19.722Z,3.50
2022-09-14T10:33:18.300Z,3.40
2022-09-14T10:35:58.785Z,3.60
2022-09-14T10:38:35.149Z,3.93
2022-09-14T10:41:39.961Z,4.10
2022-09-14T10:44:34.645Z,3.67
2022-09-14T10:47:29.626Z,2.87
2022-09-14T10:50:31.797Z,2.87
2022-09-14T10:53:52.818Z,4.00
2022-09-14T10:56:45.914Z,4.27
2022-09-14T10:59:31.631Z,5.37
2022-09-14T11:02:53.733Z,5.60
2022-09-14T11:05:56.760Z,4.87
2022-09-14T11:08:37.050Z,4.50
2022-09-14T11:11:26.967Z,4.60
2022-09-14T11:14:09.378Z,4.07
2022-09-14T11:17:03.198Z,4.10
2022-09-14T11:19:41.782Z,4.33
2022-09-14T11:22:30.726Z,3.97
2022-09-14T11:25:33.342Z,3.97
2022-09-14T11:28:14.877Z,3.73
2022-09-14T11:31:12.260Z,3.23
2022-09-14T11:33:49.965Z,3.93
2022-09-14T11:36:26.247Z,4.10
2022-09-14T11:39:10.660Z,5.77
2022-09-14T11:42:04.356Z,7.43
2022-09-14T11:44:37.570Z,5.57
2022-09-14T11:47:19.360Z,3.90
2022-09-14T11:50:25.848Z,3.37
2022-09-14T11:53:15.423Z,3.07
2022-09-14T11:55:51.243Z,3.17
2022-09-14T11:58:25.223Z,3.60
2022-09-14T12:00:52.016Z,3.17
2022-09-14T12:03:52.679Z,3.33
2022-09-14T12:06:32.078Z,3.03
2022-09-14T12:09:17.788Z,3.13
2022-09-14T12:11:47.642Z,3.50
2022-09-14T12:14:28.682Z,3.20
2022-09-14T12:17:41.240Z,3.30
2022-09-14T12:20:37.123Z,3.53
2022-09-14T12:23:36.868Z,3.10
2022-09-14T12:26:26.607Z,3.07
2022-09-14T12:28:59.264Z,3.20
2022-09-14T12:32:03.216Z,3.83
2022-09-14T12:34:33.582Z,3.87
2022-09-14T12:37:12.058Z,4.13
2022-09-14T12:40:31.446Z,3.73
2022-09-14T12:43:33.233Z,4.77
2022-09-14T12:46:31.440Z,4.63
2022-09-14T12:49:23.900Z,3.43
2022-09-14T12:51:52.028Z,2.33
2022-09-14T12:54:42.817Z,2.10
2022-09-14T12:57:49.652Z,2.20
2022-09-14T13:00:20.282Z,2.37
2022-09-14T13:03:35.209Z,3.40
2022-09-14T13:06:03.113Z,4.23
2022-09-14T13:08:32.073Z,5.00
2022-09-14T13:10:59.538Z,4.57
2022-09-14T13:13:33.489Z,3.30
2022-09-14T13:16:05.371Z,2.50
2022-09-14T13:18:37.964Z,2.53
2022-09-14T13:21:25.731Z,2.70
2022-09-14T13:23:53.324Z,2.83
2022-09-14T13:26:29.296Z,2.50
2022-09-14T13:28:59.869Z,2.60
2022-09-14T13:31:33.864Z,2.80
2022-09-14T13:34:02.959Z,2.70
2022-09-14T13:36:37.141Z,2.67
2022-09-14T13:39:12.069Z,2.70
2022-09-14T13:41:44.617Z,2.77
2022-09-14T13:44:12.596Z,3.33
2022-09-14T13:46:40.080Z,2.90
2022-09-14T13:49:08.702Z,2.90
2022-09-14T13:51:36.235Z,2.90
2022-09-14T13:54:29.943Z,2.77
2022-09-14T13:57:24.568Z,2.77
2022-09-14T14:00:16.578Z,2.90
2022-09-14T14:03:01.079Z,2.60
2022-09-14T14:05:33.827Z,2.83
2022-09-14T14:08:04.652Z,2.70
2022-09-14T14:10:34.260Z,2.80
2022-09-14T14:13:03.526Z,3.43
2022-09-14T14:15:38.214Z,3.37
2022-09-14T14:18:36.903Z,3.20
2022-09-14T14:21:22.342Z,3.07
2022-09-14T14:24:12.010Z,2.70
2022-09-14T14:26:50.935Z,2.73
2022-09-14T14:29:18.966Z,3.10
2022-09-14T14:31:46.834Z,2.70
2022-09-14T14:34:27.867Z,2.73
2022-09-14T14:36:56.167Z,3.00
2022-09-14T14:39:25.968Z,2.63
2022-09-14T14:41:53.875Z,3.30
2022-09-14T14:44:25.383Z,2.70
2022-09-14T14:46:52.816Z,2.70
2022-09-14T14:49:23.678Z,2.37
2022-09-14T14:51:51.175Z,4.43
2022-09-14T14:54:18.939Z,6.10
2022-09-14T14:56:50.095Z,4.23
2022-09-14T14:59:28.411Z,3.87
2022-09-14T15:01:57.255Z,3.73
2022-09-14T15:04:24.844Z,2.80
2022-09-14T15:06:52.715Z,2.70
2022-09-14T15:09:27.373Z,3.63
2022-09-14T15:11:55.703Z,3.67
2022-09-14T15:14:27.200Z,3.63
2022-09-14T15:16:59.492Z,4.17
2022-09-14T15:19:26.985Z,4.57
2022-09-14T15:22:00.128Z,5.10
2022-09-14T15:24:29.273Z,4.90
2022-09-14T15:26:57.440Z,4.17
2022-09-14T15:29:24.808Z,3.97
2022-09-14T15:31:52.373Z,4.90
2022-09-14T15:34:19.939Z,3.27
2022-09-14T15:36:51.232Z,3.50
2022-09-14T15:39:24.964Z,3.00
2022-09-14T15:41:53.374Z,2.83
2022-09-14T15:44:21.024Z,2.80
2022-09-14T15:46:48.573Z,2.70
2022-09-14T15:49:23.455Z,2.60
2022-09-14T15:51:54.255Z,2.60
2022-09-14T15:54:25.352Z,2.60
2022-09-14T15:57:03.392Z,2.70
2022-09-14T15:59:31.776Z,2.70
2022-09-14T16:01:59.235Z,2.60
2022-09-14T16:04:26.672Z,2.50
2022-09-14T16:06:54.280Z,2.67
2022-09-14T16:09:22.481Z,2.90
2022-09-14T16:11:50.420Z,2.90
2022-09-14T16:14:17.865Z,2.87
2022-09-14T16:16:45.291Z,2.83
2022-09-14T16:19:15.285Z,2.77
2022-09-14T16:21:43.798Z,2.80
2022-09-14T16:24:17.896Z,2.63
2022-09-14T16:26:46.425Z,2.57
2022-09-14T16:29:17.620Z,2.53
2022-09-14T16:31:47.550Z,2.50
2022-09-14T16:34:29.222Z,2.53
2022-09-14T16:36:58.591Z,2.63
2022-09-14T16:39:31.815Z,2.50
2022-09-14T16:41:59.947Z,2.50
2022-09-14T16:44:28.997Z,2.60
2022-09-14T16:46:58.566Z,2.60
2022-09-14T16:49:28.202Z,2.73
2022-09-14T16:51:57.214Z,2.67
2022-09-14T16:54:25.845Z,2.90
2022-09-14T16:56:57.879Z,2.73
2022-09-14T16:59:26.013Z,2.70
2022-09-14T17:01:55.287Z,3.10
2022-09-14T17:04:24.705Z,2.93
2022-09-14T17:06:53.105Z,3.00
2022-09-14T17:09:28.055Z,3.00
2022-09-14T17:11:57.401Z,3.07
2022-09-14T17:14:29.527Z,3.00
2022-09-14T17:16:57.981Z,3.00
2022-09-14T17:19:26.644Z,2.93
2022-09-14T17:21:54.663Z,3.07
2022-09-14T17:24:22.550Z,3.20
2022-09-14T17:26:50.296Z,3.70
2022-09-14T17:29:18.246Z,2.93
2022-09-14T17:31:46.171Z,3.10
2022-09-14T17:34:16.734Z,2.93
2022-09-14T17:36:45.099Z,2.77
2022-09-14T17:39:15.098Z,2.73
2022-09-14T17:41:43.581Z,2.90
2022-09-14T17:44:13.967Z,3.00
2022-09-14T17:46:51.671Z,2.90
2022-09-14T17:49:21.487Z,2.90
2022-09-14T17:51:49.499Z,3.00
2022-09-14T17:54:18.357Z,3.00
2022-09-14T17:56:45.937Z,3.10
2022-09-14T17:59:21.145Z,3.03
2022-09-14T18:01:49.751Z,2.90
2022-09-14T18:04:18.223Z,3.03
2022-09-14T18:06:49.791Z,2.90
2022-09-14T18:09:21.039Z,3.00
2022-09-14T18:11:49.975Z,3.03
2022-09-14T18:14:18.079Z,3.00
2022-09-14T18:16:45.962Z,2.93
2022-09-14T18:19:13.755Z,3.10
2022-09-14T18:21:42.284Z,2.83
2022-09-14T18:24:14.700Z,3.10
2022-09-14T18:26:43.522Z,3.10
2022-09-14T18:29:16.180Z,2.97
2022-09-14T18:31:44.267Z,3.37
2022-09-14T18:34:16.755Z,3.53
2022-09-14T18:36:45.132Z,3.40
2022-09-14T18:39:13.980Z,3.67
2022-09-14T18:41:41.704Z,3.60
2022-09-14T18:44:09.112Z,3.77
2022-09-14T18:46:37.622Z,3.73
2022-09-14T18:49:05.071Z,3.93
2022-09-14T18:51:32.911Z,3.70
2022-09-14T18:54:04.354Z,3.80
2022-09-14T18:56:33.151Z,3.83
2022-09-14T18:59:02.596Z,4.43
2022-09-14T19:01:30.111Z,4.20
2022-09-14T19:03:58.064Z,4.63
2022-09-14T19:06:25.585Z,4.53
2022-09-14T19:08:53.336Z,4.57
2022-09-14T19:11:26.995Z,4.77
2022-09-14T19:14:03.469Z,4.93
2022-09-14T19:16:31.254Z,4.20
2022-09-14T19:18:59.312Z,4.70
2022-09-14T19:21:29.592Z,4.70
2022-09-14T19:24:02.993Z,4.90
2022-09-14T19:26:44.012Z,4.63
2022-09-14T19:29:19.991Z,4.87
2022-09-14T19:31:51.367Z,4.20
2022-09-14T19:34:24.977Z,4.60
2022-09-14T19:36:53.775Z,4.40
2022-09-14T19:39:22.504Z,4.60
2022-09-14T19:41:50.117Z,4.80
2022-09-14T19:44:17.798Z,4.67
2022-09-14T19:46:45.342Z,4.43
2022-09-14T19:49:20.169Z,5.40
2022-09-14T19:51:48.381Z,4.53
2022-09-14T19:54:16.777Z,4.67
2022-09-14T19:56:45.938Z,4.87
2022-09-14T19:59:13.819Z,5.17
2022-09-14T20:01:41.971Z,4.60
2022-09-14T20:04:10.615Z,5.47
2022-09-14T20:06:42.544Z,4.77
2022-09-14T20:09:21.105Z,5.13
2022-09-14T20:11:51.565Z,5.37
2022-09-14T20:14:23.261Z,5.20
2022-09-14T20:16:54.522Z,4.67
2022-09-14T20:19:25.701Z,5.40
2022-09-14T20:21:53.641Z,5.17
2022-09-14T20:24:28.503Z,5.30
2022-09-14T20:26:59.431Z,4.87
2022-09-14T20:29:30.370Z,4.67
2022-09-14T20:31:58.838Z,4.57
2022-09-14T20:34:26.368Z,4.40
2022-09-14T20:36:55.329Z,4.50
2022-09-14T20:39:23.950Z,4.60
2022-09-14T20:41:51.319Z,4.77
2022-09-14T20:44:22.914Z,4.40
2022-09-14T20:46:51.283Z,4.20
2022-09-14T20:49:21.938Z,4.30
2022-09-14T20:51:49.807Z,3.87
2022-09-14T20:54:18.526Z,4.20
2022-09-14T20:56:46.236Z,4.13
2022-09-14T20:59:16.855Z,4.97
2022-09-14T21:01:47.004Z,3.90
2022-09-14T21:04:18.023Z,3.87
2022-09-14T21:06:49.187Z,3.97
2022-09-14T21:09:20.252Z,4.03
2022-09-14T21:11:47.944Z,3.63
2022-09-14T21:14:17.793Z,3.87
2022-09-14T21:16:48.280Z,3.60
2022-09-14T21:19:25.628Z,4.00
2022-09-14T21:21:53.224Z,3.60
2022-09-14T21:24:22.740Z,3.80
2022-09-14T21:26:50.324Z,3.43
2022-09-14T21:29:22.723Z,3.67
2022-09-14T21:31:51.075Z,3.40
2022-09-14T21:34:18.675Z,3.67
2022-09-14T21:36:50.620Z,3.50
2022-09-14T21:39:25.187Z,3.60
2022-09-14T21:41:58.880Z,3.23
2022-09-14T21:44:32.589Z,3.70
2022-09-14T21:47:01.575Z,3.37
2022-09-14T21:49:29.151Z,3.60
2022-09-14T21:51:56.616Z,3.60
2022-09-14T21:54:24.240Z,3.37
2022-09-14T21:56:52.351Z,3.27
2022-09-14T21:59:22.797Z,3.33
2022-09-14T22:01:50.937Z,3.27
2022-09-14T22:04:23.009Z,3.50
2022-09-14T22:06:51.498Z,3.30
2022-09-14T22:09:23.719Z,3.27
2022-09-14T22:11:51.648Z,3.17
2022-09-14T22:14:23.508Z,3.17
2022-09-14T22:16:51.474Z,3.27
2022-09-14T22:19:22.951Z,3.30
2022-09-14T22:21:50.864Z,3.13
2022-09-14T22:24:23.296Z,3.33
2022-09-14T22:26:50.756Z,3.23
2022-09-14T22:29:21.213Z,3.10
2022-09-14T22:31:48.956Z,3.07
2022-09-14T22:34:16.957Z,3.07
2022-09-14T22:36:44.669Z,2.90
2022-09-14T22:39:12.122Z,2.97
2022-09-14T22:41:40.076Z,2.87
2022-09-14T22:44:08.449Z,2.83
2022-09-14T22:46:36.624Z,2.83
2022-09-14T22:49:04.428Z,3.00
2022-09-14T22:51:31.635Z,2.93
2022-09-14T22:53:59.161Z,2.90
2022-09-14T22:56:31.278Z,3.00
2022-09-14T22:59:00.840Z,2.97
2022-09-14T23:01:37.381Z,2.80
2022-09-14T23:04:12.101Z,2.70
2022-09-14T23:06:47.267Z,2.80
2022-09-14T23:09:20.701Z,2.73
2022-09-14T23:11:48.585Z,2.70
2022-09-14T23:14:17.134Z,2.77
2022-09-14T23:16:45.363Z,2.60
2022-09-14T23:19:16.792Z,2.73
2022-09-14T23:21:44.857Z,2.77
2022-09-14T23:24:12.794Z,2.80
2022-09-14T23:26:40.642Z,2.70
2022-09-14T23:29:16.681Z,2.80
2022-09-14T23:31:44.732Z,2.80
2022-09-14T23:34:11.853Z,2.80
2022-09-14T23:36:39.440Z,2.87
2022-09-14T23:39:06.917Z,2.80
2022-09-14T23:41:34.417Z,2.87
2022-09-14T23:44:02.054Z,2.90
2022-09-14T23:46:29.610Z,2.80
2022-09-14T23:48:57.230Z,2.90
2022-09-14T23:51:24.766Z,2.93
2022-09-14T23:53:52.158Z,2.83
2022-09-14T23:56:19.698Z,3.00
2022-09-14T23:58:46.659Z,2.80
